Time;durP1;ratioP1;P1;durP2;ratioP2;P2;SDS_P1;SDS_P2;PMS_P1;PMS_P2;Temp;Humidity;BMP_temperature;BMP_pressure;BME280_temperature;BME280_humidity;BME280_pressure;Samples;Min_cycle;Max_cycle;Signal;HPM_P1;HPM_P2
2023/06/02 00:00:48;;;;;;;;;;;;;;;30.09;37.35;94038.84;4913888;29;8920;-61
2023/06/02 00:03:44;;;;;;;;;;;;;;;30.08;37.02;94034.59;4895867;29;7686;-62
2023/06/02 00:06:22;;;;;;;;;;;;;;;30.07;36.82;94036.63;4911741;29;7114;-61
2023/06/02 00:09:04;;;;;;;;;;;;;;;30.04;36.51;94026.63;4897455;29;8824;-62
2023/06/02 00:11:35;;;;;;;;;;;;;;;30.05;37.60;94033.66;4907403;29;7844;-62
2023/06/02 00:14:06;;;;;;;;;;;;;;;30.05;36.56;94030.88;4894778;29;7387;-62
2023/06/02 00:16:41;;;;;;;;;;;;;;;30.02;37.23;94026.41;4913535;29;8810;-61
2023/06/02 00:19:23;;;;;;;;;;;;;;;30.02;36.45;94028.44;4895716;29;9519;-62
2023/06/02 00:22:29;;;;;;;;;;;;;;;30.02;36.52;94020.13;4912968;29;7356;-62
2023/06/02 00:25:18;;;;;;;;;;;;;;;29.99;37.59;94022.00;4836494;29;7330;-62
2023/06/02 00:27:44;;;;;;;;;;;;;;;30.01;37.66;94024.22;4891526;29;9064;-62
2023/06/02 00:30:27;;;;;;;;;;;;;;;30.01;36.53;94021.44;4887359;29;7092;-61
2023/06/02 00:33:30;;;;;;;;;;;;;;;30.01;36.71;94024.22;4907437;29;9021;-62
2023/06/02 00:35:57;;;;;;;;;;;;;;;29.99;37.16;94016.44;4860452;29;9048;-62
2023/06/02 00:38:49;;;;;;;;;;;;;;;29.99;36.58;94021.25;4875284;29;9085;-62
2023/06/02 00:41:50;;;;;;;;;;;;;;;29.98;36.58;94020.50;4873659;29;7302;-62
2023/06/02 00:44:31;;;;;;;;;;;;;;;29.98;36.94;94020.50;4827703;29;7118;-62
2023/06/02 00:47:08;;;;;;;;;;;;;;;29.97;37.00;94019.00;4825312;29;6983;-62
2023/06/02 00:50:13;;;;;;;;;;;;;;;29.97;36.96;94023.81;4825637;29;9439;-62
2023/06/02 00:52:57;;;;;;;;;;;;;;;29.96;37.04;94023.06;4839491;29;9217;-62
2023/06/02 00:55:43;;;;;;;;;;;;;;;29.96;36.56;94028.63;4832942;29;9125;-62
2023/06/02 00:58:23;;;;;;;;;;;;;;;29.95;37.09;94021.59;4839862;29;7158;-61
2023/06/02 01:01:03;;;;;;;;;;;;;;;29.95;36.82;94018.81;4833389;29;9220;-61
2023/06/02 01:03:31;;;;;;;;;;;;;;;29.94;36.67;94017.34;4872424;29;7490;-61
2023/06/02 01:06:00;;;;;;;;;;;;;;;29.94;37.20;94020.13;4881325;29;7109;-61
2023/06/02 01:08:30;;;;;;;;;;;;;;;29.94;36.99;94014.56;4857089;29;8999;-61
2023/06/02 01:10:58;;;;;;;;;;;;;;;29.94;37.36;94022.13;4877275;29;9144;-61
2023/06/02 01:14:02;;;;;;;;;;;;;;;29.92;37.56;94017.16;4884235;29;8752;-61
2023/06/02 01:16:44;;;;;;;;;;;;;;;29.92;37.67;94019.91;4880785;29;7028;-61
2023/06/02 01:19:15;;;;;;;;;;;;;;;29.92;37.86;94017.16;4938106;28;8414;-61
2023/06/02 01:21:57;;;;;;;;;;;;;;;29.92;36.98;94017.16;4953553;28;9357;-61
2023/06/02 01:24:48;;;;;;;;;;;;;;;29.92;37.10;94016.41;5007119;28;9047;-61
2023/06/02 01:27:16;;;;;;;;;;;;;;;29.92;37.04;94016.41;5012296;28;7259;-61
2023/06/02 01:29:45;;;;;;;;;;;;;;;29.92;36.74;94013.63;5014260;28;9078;-61
2023/06/02 01:32:19;;;;;;;;;;;;;;;29.90;37.46;94014.19;5010507;28;7324;-61
2023/06/02 01:34:52;;;;;;;;;;;;;;;29.92;37.34;94017.16;4999276;28;8979;-61
2023/06/02 01:37:37;;;;;;;;;;;;;;;29.94;36.78;94013.81;5021727;28;7024;-62
2023/06/02 01:40:06;;;;;;;;;;;;;;;29.97;37.21;94012.72;5025612;28;10307;-61
2023/06/02 01:42:48;;;;;;;;;;;;;;;29.98;36.59;94014.94;5018905;28;7111;-61
2023/06/02 01:45:17;;;;;;;;;;;;;;;29.98;37.16;94014.94;5015380;28;9065;-61
2023/06/02 01:48:17;;;;;;;;;;;;;;;30.00;37.72;94014.38;5017030;28;7229;-61
2023/06/02 01:51:09;;;;;;;;;;;;;;;30.01;37.68;94013.84;4967197;28;8628;-62
2023/06/02 01:53:52;;;;;;;;;;;;;;;30.01;36.61;94011.09;4960487;28;7054;-62
2023/06/02 01:56:32;;;;;;;;;;;;;;;29.99;37.21;94005.34;4956383;28;9852;-62
2023/06/02 01:59:00;;;;;;;;;;;;;;;30.00;37.50;94012.38;4949400;28;7093;-61
2023/06/02 02:01:45;;;;;;;;;;;;;;;30.00;37.62;94015.13;4961113;28;7268;-62
2023/06/02 02:04:42;;;;;;;;;;;;;;;29.99;36.34;94005.34;4975435;28;7260;-62
2023/06/02 02:07:35;;;;;;;;;;;;;;;30.01;37.55;94011.09;4911604;29;7244;-62
2023/06/02 02:10:12;;;;;;;;;;;;;;;30.01;37.20;94008.31;4925797;29;7217;-61
2023/06/02 02:12:46;;;;;;;;;;;;;;;30.02;36.23;94009.03;4918577;29;7054;-61
2023/06/02 02:15:12;;;;;;;;;;;;;;;30.00;37.01;94001.28;4921459;29;7205;-61
2023/06/02 02:17:45;;;;;;;;;;;;;;;29.98;37.26;93995.53;4918292;29;7055;-60
2023/06/02 02:20:22;;;;;;;;;;;;;;;29.99;36.29;93999.06;4917605;29;7065;-60
2023/06/02 02:22:50;;;;;;;;;;;;;;;29.97;37.09;93996.81;4902245;29;9080;-61
2023/06/02 02:25:18;;;;;;;;;;;;;;;29.98;36.67;93990.00;4918655;28;6977;-61
2023/06/02 02:28:15;;;;;;;;;;;;;;;29.99;37.58;93996.28;4975073;28;9748;-61
2023/06/02 02:30:42;;;;;;;;;;;;;;;29.98;37.45;93995.53;4898016;29;8210;-61
2023/06/02 02:33:12;;;;;;;;;;;;;;;30.00;37.01;94000.53;4875735;29;8281;-61
2023/06/02 02:35:38;;;;;;;;;;;;;;;29.97;37.46;93991.25;4892890;29;10076;-61
2023/06/02 02:38:32;;;;;;;;;;;;;;;29.99;36.46;93999.06;4888145;29;7502;-61
2023/06/02 02:41:12;;;;;;;;;;;;;;;29.98;37.30;93987.22;4874048;29;7367;-61
2023/06/02 02:43:38;;;;;;;;;;;;;;;29.96;37.12;93997.38;4918171;29;8271;-61
2023/06/02 02:46:15;;;;;;;;;;;;;;;29.97;36.81;93998.88;4913366;29;6879;-61
2023/06/02 02:48:56;;;;;;;;;;;;;;;29.95;37.40;94002.16;4923267;29;9070;-61
2023/06/02 02:51:51;;;;;;;;;;;;;;;29.95;36.70;94007.72;4917572;29;7091;-62
2023/06/02 02:54:53;;;;;;;;;;;;;;;29.95;37.45;94004.22;4862963;29;8767;-62
2023/06/02 02:57:48;;;;;;;;;;;;;;;29.94;37.61;94009.03;4887818;29;8751;-61
2023/06/02 03:00:27;;;;;;;;;;;;;;;29.95;37.20;94012.53;4784783;29;7303;-61
2023/06/02 03:03:05;;;;;;;;;;;;;;;29.91;37.52;94004.56;4788059;29;8194;-61
2023/06/02 03:05:55;;;;;;;;;;;;;;;29.94;36.53;94011.03;4799201;29;7269;-61
2023/06/02 03:08:22;;;;;;;;;;;;;;;29.92;37.21;94006.06;4830360;29;7036;-61
2023/06/02 03:10:58;;;;;;;;;;;;;;;29.92;37.18;94008.09;4861488;29;7083;-61
2023/06/02 03:13:47;;;;;;;;;;;;;;;29.92;37.84;94008.84;4859764;29;7263;-62
2023/06/02 03:16:16;;;;;;;;;;;;;;;29.91;36.83;94010.09;4859076;29;7047;-61
2023/06/02 03:18:52;;;;;;;;;;;;;;;29.91;36.90;94010.09;4858917;29;7389;-62
2023/06/02 03:21:31;;;;;;;;;;;;;;;29.89;36.91;94012.69;4865334;29;7472;-61
2023/06/02 03:24:02;;;;;;;;;;;;;;;29.91;37.05;94018.44;4865542;29;7487;-61
2023/06/02 03:26:52;;;;;;;;;;;;;;;29.90;37.30;94014.19;4852181;29;9575;-61
2023/06/02 03:29:36;;;;;;;;;;;;;;;29.86;37.24;94005.47;4869652;29;7340;-61
2023/06/02 03:32:11;;;;;;;;;;;;;;;29.89;36.68;94015.47;4922718;28;7255;-61
2023/06/02 03:34:48;;;;;;;;;;;;;;;29.87;37.22;94014.53;4945440;28;7192;-62
2023/06/02 03:37:15;;;;;;;;;;;;;;;29.85;37.74;94008.78;4993119;28;7260;-62
2023/06/02 03:39:52;;;;;;;;;;;;;;;29.87;37.63;94015.28;5026842;28;7059;-61
2023/06/02 03:42:26;;;;;;;;;;;;;;;29.86;37.27;94013.81;5004768;28;7051;-61
2023/06/02 03:44:53;;;;;;;;;;;;;;;29.87;38.03;94015.28;5013702;28;7242;-61
2023/06/02 03:47:26;;;;;;;;;;;;;;;29.85;36.88;94017.84;5001238;28;7503;-61
2023/06/02 03:50:03;;;;;;;;;;;;;;;29.86;37.75;94015.81;5013430;28;7320;-61
2023/06/02 03:53:00;;;;;;;;;;;;;;;29.85;36.95;94014.34;5016939;28;7095;-60
2023/06/02 03:55:26;;;;;;;;;;;;;;;29.85;36.80;94022.66;4986885;28;7206;-61
2023/06/02 03:57:52;;;;;;;;;;;;;;;29.82;37.19;94013.38;4989935;28;8783;-61
2023/06/02 04:00:18;;;;;;;;;;;;;;;29.83;37.57;94020.44;4976879;28;9035;-61
2023/06/02 04:02:44;;;;;;;;;;;;;;;29.83;37.39;94016.91;4970651;28;9046;-61
2023/06/02 04:05:12;;;;;;;;;;;;;;;29.83;36.79;94020.44;4973641;28;7246;-60
2023/06/02 04:07:48;;;;;;;;;;;;;;;29.82;37.40;94018.94;4976679;28;7319;-61
2023/06/02 04:10:16;;;;;;;;;;;;;;;29.83;37.69;94016.91;4989160;28;9453;-61
2023/06/02 04:12:42;;;;;;;;;;;;;;;29.83;37.55;94025.97;4992760;28;9136;-61
2023/06/02 04:15:17;;;;;;;;;;;;;;;29.83;37.57;94030.78;4975876;28;9322;-61
2023/06/02 04:17:47;;;;;;;;;;;;;;;29.80;37.49;94025.03;4976501;28;9000;-61
2023/06/02 04:20:12;;;;;;;;;;;;;;;29.80;36.98;94033.34;4992880;28;7245;-60
2023/06/02 04:22:50;;;;;;;;;;;;;;;29.81;37.53;94039.66;4976557;28;9166;-61
2023/06/02 04:25:30;;;;;;;;;;;;;;;29.80;37.73;94038.91;4983838;28;7616;-62
2023/06/02 04:28:07;;;;;;;;;;;;;;;29.80;38.10;94040.94;4976622;28;7344;-61
2023/06/02 04:30:42;;;;;;;;;;;;;;;29.76;38.02;94041.28;4987891;28;6998;-61
2023/06/02 04:33:18;;;;;;;;;;;;;;;29.74;37.46;94043.88;5014598;28;8997;-62
2023/06/02 04:35:51;;;;;;;;;;;;;;;29.74;37.59;94049.41;5015750;28;7422;-61
2023/06/02 04:38:53;;;;;;;;;;;;;;;29.76;37.87;94054.41;5042439;28;7026;-61
2023/06/02 04:41:36;;;;;;;;;;;;;;;29.77;37.54;94050.34;4949685;28;7055;-61
2023/06/02 04:44:16;;;;;;;;;;;;;;;29.76;37.67;94048.84;4943147;28;7777;-61
2023/06/02 04:46:49;;;;;;;;;;;;;;;29.78;37.88;94057.38;4966145;28;8733;-61
2023/06/02 04:49:17;;;;;;;;;;;;;;;29.78;37.61;94063.66;4967455;28;7269;-61
2023/06/02 04:52:22;;;;;;;;;;;;;;;29.78;38.37;94054.59;4947246;28;7261;-61
2023/06/02 04:55:03;;;;;;;;;;;;;;;29.78;37.41;94051.81;4942547;28;7320;-62
2023/06/02 04:57:56;;;;;;;;;;;;;;;29.78;37.21;94055.34;4951038;28;7142;-61
2023/06/02 05:00:24;;;;;;;;;;;;;;;29.76;38.03;94057.91;4947285;28;9021;-61
2023/06/02 05:03:21;;;;;;;;;;;;;;;29.76;37.46;94048.84;4943810;28;6996;-61
2023/06/02 05:06:00;;;;;;;;;;;;;;;29.77;37.18;94053.13;4910462;29;9038;-61
2023/06/02 05:08:27;;;;;;;;;;;;;;;29.74;37.04;94051.44;4919775;29;9071;-61
2023/06/02 05:10:53;;;;;;;;;;;;;;;29.74;37.63;94054.22;4933011;29;7023;-61
2023/06/02 05:13:19;;;;;;;;;;;;;;;29.75;38.32;94053.66;4909511;29;7285;-61
2023/06/02 05:16:07;;;;;;;;;;;;;;;29.77;37.73;94055.91;4955351;28;7284;-61
2023/06/02 05:18:47;;;;;;;;;;;;;;;29.76;37.09;94057.16;4984283;28;8991;-60
2023/06/02 05:21:16;;;;;;;;;;;;;;;29.74;37.58;94052.19;4965618;28;9388;-61
2023/06/02 05:23:43;;;;;;;;;;;;;;;29.76;37.21;94051.63;4979818;28;7209;-61
2023/06/02 05:26:17;;;;;;;;;;;;;;;29.76;37.72;94052.38;4971715;28;8240;-62
2023/06/02 05:28:44;;;;;;;;;;;;;;;29.77;37.37;94055.91;4971876;28;9048;-62
2023/06/02 05:31:14;;;;;;;;;;;;;;;29.78;38.15;94049.06;4975004;28;9166;-62
2023/06/02 05:33:50;;;;;;;;;;;;;;;29.78;37.27;94058.13;4971164;28;7128;-62
2023/06/02 05:36:16;;;;;;;;;;;;;;;29.72;37.54;94054.72;4985914;28;7420;-61
2023/06/02 05:38:44;;;;;;;;;;;;;;;29.70;38.21;94051.03;4970938;28;8473;-61
2023/06/02 05:41:14;;;;;;;;;;;;;;;29.68;37.33;94050.81;4986469;28;7030;-61
2023/06/02 05:43:41;;;;;;;;;;;;;;;29.67;37.65;94052.09;5010054;28;8227;-61
2023/06/02 05:46:13;;;;;;;;;;;;;;;29.65;37.62;94043.59;5032012;28;9107;-61
2023/06/02 05:48:40;;;;;;;;;;;;;;;29.63;37.89;94046.16;5037560;28;7247;-61
2023/06/02 05:51:06;;;;;;;;;;;;;;;29.63;36.98;94052.47;5025881;28;6909;-61
2023/06/02 05:53:32;;;;;;;;;;;;;;;29.63;37.63;94055.22;5011422;28;8864;-61
2023/06/02 05:56:00;;;;;;;;;;;;;;;29.62;37.37;94050.25;5024519;28;7216;-61
2023/06/02 05:58:26;;;;;;;;;;;;;;;29.63;37.27;94054.47;5022988;28;7648;-61
2023/06/02 06:00:55;;;;;;;;;;;;;;;29.62;36.99;94044.69;5011935;28;8843;-61
2023/06/02 06:03:21;;;;;;;;;;;;;;;29.63;37.74;94046.16;5028271;28;9016;-61
2023/06/02 06:05:47;;;;;;;;;;;;;;;29.64;38.04;94055.97;5010379;28;7190;-61
2023/06/02 06:08:13;;;;;;;;;;;;;;;29.63;38.11;94051.72;5026638;28;9143;-61
2023/06/02 06:10:42;;;;;;;;;;;;;;;29.62;37.90;94056.50;5005517;28;9124;-61
2023/06/02 06:13:08;;;;;;;;;;;;;;;29.61;37.87;94054.28;5018847;28;7033;-61
2023/06/02 06:15:36;;;;;;;;;;;;;;;29.64;37.26;94058.75;5014934;28;7367;-61
2023/06/02 06:18:02;;;;;;;;;;;;;;;29.64;37.78;94059.50;5006643;28;9027;-61
2023/06/02 06:20:30;;;;;;;;;;;;;;;29.66;38.02;94056.19;5036030;28;7000;-62
2023/06/02 06:22:56;;;;;;;;;;;;;;;29.63;37.26;94055.22;5011397;28;9018;-62
2023/06/02 06:25:22;;;;;;;;;;;;;;;29.62;37.43;94056.50;5003184;28;7199;-62
2023/06/02 06:27:48;;;;;;;;;;;;;;;29.67;37.20;94063.19;4995368;28;8828;-62
2023/06/02 06:30:14;;;;;;;;;;;;;;;29.67;37.07;94068.72;5010480;28;8910;-62
2023/06/02 06:32:43;;;;;;;;;;;;;;;29.66;36.95;94072.81;5012213;28;9432;-62
2023/06/02 06:35:09;;;;;;;;;;;;;;;29.65;37.50;94068.53;5019141;28;7336;-62
2023/06/02 06:37:37;;;;;;;;;;;;;;;29.66;37.18;94072.81;5018247;28;8925;-62
2023/06/02 06:40:03;;;;;;;;;;;;;;;29.64;38.07;94075.38;5008626;28;9493;-62
2023/06/02 06:42:31;;;;;;;;;;;;;;;29.61;37.21;94066.13;4999327;28;9360;-62
2023/06/02 06:44:57;;;;;;;;;;;;;;;29.62;37.32;94067.59;5021108;28;9038;-62
2023/06/02 06:47:23;;;;;;;;;;;;;;;29.64;37.66;94069.84;5021721;28;7253;-62
2023/06/02 06:49:56;;;;;;;;;;;;;;;29.64;37.72;94067.06;5005430;28;9022;-62
2023/06/02 06:52:23;;;;;;;;;;;;;;;29.61;36.82;94065.38;5027895;28;8376;-62
2023/06/02 06:54:53;;;;;;;;;;;;;;;29.61;37.20;94068.91;5010701;28;7028;-62
2023/06/02 06:57:19;;;;;;;;;;;;;;;29.58;37.47;94066.47;5004649;28;8758;-63
2023/06/02 06:59:48;;;;;;;;;;;;;;;29.60;37.82;94066.69;5022602;28;7112;-62
2023/06/02 07:02:14;;;;;;;;;;;;;;;29.60;37.63;94069.44;5006112;28;9533;-62
2023/06/02 07:04:46;;;;;;;;;;;;;;;29.60;37.76;94066.69;5020040;28;7021;-63
2023/06/02 07:07:13;;;;;;;;;;;;;;;29.60;37.52;94064.63;5032906;28;7053;-62
2023/06/02 07:09:39;;;;;;;;;;;;;;;29.60;37.24;94063.91;5008836;28;7199;-63
2023/06/02 07:12:08;;;;;;;;;;;;;;;29.62;38.02;94055.78;5032914;28;7108;-63
2023/06/02 07:14:36;;;;;;;;;;;;;;;29.63;38.23;94066.31;5007399;28;8263;-62
2023/06/02 07:17:07;;;;;;;;;;;;;;;29.63;37.26;94062.81;5010605;28;9250;-62
2023/06/02 07:19:37;;;;;;;;;;;;;;;29.62;37.72;94055.78;5008016;28;9078;-62
2023/06/02 07:22:05;;;;;;;;;;;;;;;29.63;37.84;94058.00;5015788;28;8705;-62
2023/06/02 07:24:32;;;;;;;;;;;;;;;29.63;37.93;94058.00;5006385;28;9265;-62
2023/06/02 07:27:10;;;;;;;;;;;;;;;29.63;37.85;94058.00;5005221;28;9136;-62
2023/06/02 07:29:38;;;;;;;;;;;;;;;29.63;38.11;94062.81;5042403;28;7591;-62
2023/06/02 07:32:07;;;;;;;;;;;;;;;29.62;38.03;94069.66;5010718;28;9386;-62
2023/06/02 07:34:51;;;;;;;;;;;;;;;29.57;37.44;94065.00;5026006;28;7478;-62
2023/06/02 07:37:17;;;;;;;;;;;;;;;29.62;37.89;94066.88;5029859;28;7241;-62
2023/06/02 07:40:21;;;;;;;;;;;;;;;29.64;37.95;94069.84;5006346;28;9000;-62
2023/06/02 07:43:02;;;;;;;;;;;;;;;29.64;38.25;94065.03;4962886;28;7215;-62
2023/06/02 07:45:39;;;;;;;;;;;;;;;29.65;37.55;94077.59;4953300;28;7016;-62
2023/06/02 07:48:17;;;;;;;;;;;;;;;29.64;37.06;94073.38;4949138;28;8977;-62
2023/06/02 07:50:43;;;;;;;;;;;;;;;29.65;37.43;94076.84;4978889;28;6977;-62
2023/06/02 07:53:20;;;;;;;;;;;;;;;29.64;38.21;94081.69;4939591;28;9096;-62
2023/06/02 07:55:47;;;;;;;;;;;;;;;29.66;38.02;94078.34;4951426;28;9081;-62
2023/06/02 07:58:14;;;;;;;;;;;;;;;29.66;37.44;94072.81;4949739;28;8967;-62
2023/06/02 08:00:43;;;;;;;;;;;;;;;29.69;37.56;94077.25;4953278;28;9109;-62
2023/06/02 08:03:18;;;;;;;;;;;;;;;29.68;38.28;94075.78;4959966;28;8874;-62
2023/06/02 08:05:55;;;;;;;;;;;;;;;29.68;38.24;94076.53;4977915;28;9850;-62
2023/06/02 08:08:35;;;;;;;;;;;;;;;29.67;37.69;94068.72;4954048;28;7112;-62
2023/06/02 08:11:31;;;;;;;;;;;;;;;29.70;38.00;94079.50;4953902;28;7300;-62
2023/06/02 08:13:57;;;;;;;;;;;;;;;29.70;38.34;94084.28;4950185;28;7271;-62
2023/06/02 08:16:33;;;;;;;;;;;;;;;29.68;37.97;94075.78;4971661;28;9088;-63
2023/06/02 08:19:14;;;;;;;;;;;;;;;29.69;38.03;94078.00;5022942;28;7089;-62
2023/06/02 08:21:42;;;;;;;;;;;;;;;29.69;37.84;94078.00;5027468;28;7015;-63
2023/06/02 08:24:11;;;;;;;;;;;;;;;29.67;37.69;94069.47;5035414;28;7260;-61
2023/06/02 08:26:48;;;;;;;;;;;;;;;29.70;36.94;94067.66;4999546;28;7524;-61
2023/06/02 08:29:16;;;;;;;;;;;;;;;29.67;36.45;94065.97;5022453;28;7222;-62
2023/06/02 08:31:42;;;;;;;;;;;;;;;29.68;37.26;94070.22;5024444;28;7398;-62
2023/06/02 08:34:27;;;;;;;;;;;;;;;29.72;38.17;94068.59;5010896;28;8718;-61
2023/06/02 08:37:03;;;;;;;;;;;;;;;29.73;37.04;94067.28;5010193;28;7030;-62
2023/06/02 08:39:50;;;;;;;;;;;;;;;29.74;37.58;94063.28;5010941;28;7065;-61
2023/06/02 08:42:27;;;;;;;;;;;;;;;29.75;38.58;94061.25;5024134;28;9135;-61
2023/06/02 08:45:08;;;;;;;;;;;;;;;29.76;36.04;94057.16;5035699;28;7262;-62
2023/06/02 08:47:43;;;;;;;;;;;;;;;29.75;36.30;94058.47;5006516;28;7062;-62
2023/06/02 08:50:41;;;;;;;;;;;;;;;29.75;36.68;94059.19;5005209;28;7412;-61
2023/06/02 08:53:46;;;;;;;;;;;;;;;29.78;36.73;94058.13;4910978;29;7008;-61
2023/06/02 08:56:30;;;;;;;;;;;;;;;29.77;37.59;94058.66;4909156;29;7706;-61
2023/06/02 08:59:00;;;;;;;;;;;;;;;29.80;37.65;94055.53;4913581;29;8460;-61
2023/06/02 09:01:29;;;;;;;;;;;;;;;29.81;38.01;94061.81;4912617;29;7246;-61
2023/06/02 09:04:28;;;;;;;;;;;;;;;29.79;37.17;94056.84;4912413;29;7014;-61
2023/06/02 09:07:33;;;;;;;;;;;;;;;29.79;37.10;94064.41;4875122;29;7289;-61
2023/06/02 09:10:10;;;;;;;;;;;;;;;29.78;37.06;94055.34;4875696;29;6990;-61
2023/06/02 09:12:55;;;;;;;;;;;;;;;29.81;37.69;94061.81;4871832;29;7510;-62
2023/06/02 09:15:22;;;;;;;;;;;;;;;29.79;36.98;94059.63;4868788;29;7133;-62
2023/06/02 09:18:11;;;;;;;;;;;;;;;29.78;37.88;94057.38;4874767;29;9551;-62
2023/06/02 09:20:48;;;;;;;;;;;;;;;29.83;36.54;94062.03;4874130;29;7487;-62
2023/06/02 09:23:52;;;;;;;;;;;;;;;29.84;37.48;94060.72;4857808;29;8545;-62
2023/06/02 09:26:33;;;;;;;;;;;;;;;29.81;37.23;94061.81;4865600;29;7051;-61
2023/06/02 09:29:18;;;;;;;;;;;;;;;29.82;37.18;94057.03;4856811;29;8242;-62
2023/06/02 09:31:54;;;;;;;;;;;;;;;29.82;37.89;94051.50;4906556;29;9500;-62
2023/06/02 09:34:48;;;;;;;;;;;;;;;29.79;37.65;94048.53;4907611;29;9110;-62
2023/06/02 09:37:17;;;;;;;;;;;;;;;29.78;37.12;94047.03;4907087;29;8488;-62
2023/06/02 09:39:49;;;;;;;;;;;;;;;29.77;37.15;94053.88;4903538;29;7002;-62
2023/06/02 09:42:21;;;;;;;;;;;;;;;29.76;37.94;94049.59;4970611;28;9490;-62
2023/06/02 09:45:06;;;;;;;;;;;;;;;29.76;37.20;94048.84;5022017;28;9645;-62
2023/06/02 09:47:52;;;;;;;;;;;;;;;29.79;37.39;94053.31;5023512;28;7291;-62
2023/06/02 09:51:07;;;;;;;;;;;;;;;29.77;37.35;94047.59;5033156;28;7232;-62
2023/06/02 09:53:51;;;;;;;;;;;;;;;29.78;38.08;94049.06;5009799;28;8615;-62
2023/06/02 09:56:29;;;;;;;;;;;;;;;29.78;37.86;94049.81;5008117;28;7429;-62
2023/06/02 09:58:56;;;;;;;;;;;;;;;29.82;38.54;94054.97;5004774;28;9330;-62
2023/06/02 10:01:34;;;;;;;;;;;;;;;29.80;38.45;94052.00;5010380;28;7019;-62
2023/06/02 10:04:08;;;;;;;;;;;;;;;29.82;38.12;94062.56;5010953;28;9030;-62
2023/06/02 10:06:45;;;;;;;;;;;;;;;29.83;38.00;94050.94;5016061;28;9351;-62
2023/06/02 10:09:38;;;;;;;;;;;;;;;29.85;39.09;94050.38;5041988;28;8932;-62
2023/06/02 10:12:47;;;;;;;;;;;;;;;29.85;37.88;94050.38;5040626;28;7047;-62
2023/06/02 10:15:34;;;;;;;;;;;;;;;29.88;37.52;94047.28;5014529;28;8734;-63
2023/06/02 10:18:22;;;;;;;;;;;;;;;29.90;38.08;94053.00;5028343;28;7641;-63
2023/06/02 10:21:26;;;;;;;;;;;;;;;29.93;38.25;94043.56;5014305;28;7300;-62
2023/06/02 10:24:04;;;;;;;;;;;;;;;29.95;38.60;94046.53;5018594;28;8985;-62
2023/06/02 10:27:02;;;;;;;;;;;;;;;29.95;38.96;94046.53;5019849;28;7023;-61
2023/06/02 10:29:32;;;;;;;;;;;;;;;29.95;38.95;94041.00;5036295;28;8546;-61
2023/06/02 10:31:58;;;;;;;;;;;;;;;29.95;38.10;94034.72;5004158;28;9199;-61
2023/06/02 10:34:45;;;;;;;;;;;;;;;29.95;38.14;94029.91;5015145;28;8981;-61
2023/06/02 10:37:13;;;;;;;;;;;;;;;29.94;38.68;94033.22;5034800;28;9008;-61
2023/06/02 10:39:39;;;;;;;;;;;;;;;29.95;37.81;94029.19;5009483;28;8010;-61
2023/06/02 10:42:13;;;;;;;;;;;;;;;29.97;38.26;94026.59;5015349;28;9036;-61
2023/06/02 10:44:39;;;;;;;;;;;;;;;29.96;37.86;94022.34;5020027;28;7124;-61
2023/06/02 10:47:19;;;;;;;;;;;;;;;29.94;38.29;94024.91;5017491;28;7329;-61
2023/06/02 10:50:00;;;;;;;;;;;;;;;29.95;37.34;94020.88;5029823;28;7559;-61
2023/06/02 10:52:31;;;;;;;;;;;;;;;29.92;38.02;94016.41;5005964;28;8029;-62
2023/06/02 10:55:14;;;;;;;;;;;;;;;29.93;38.13;94018.63;5001873;28;9566;-61
2023/06/02 10:57:55;;;;;;;;;;;;;;;29.93;36.77;94018.63;5018400;28;9004;-61
2023/06/02 11:00:35;;;;;;;;;;;;;;;29.92;37.62;94022.69;5038208;28;9129;-62
2023/06/02 11:03:06;;;;;;;;;;;;;;;29.93;37.20;94015.13;5005499;28;7498;-62
2023/06/02 11:05:35;;;;;;;;;;;;;;;29.98;36.99;94014.19;5020468;28;9128;-62
2023/06/02 11:08:18;;;;;;;;;;;;;;;30.03;37.04;94018.84;5000681;28;9402;-62
2023/06/02 11:11:04;;;;;;;;;;;;;;;30.03;37.75;94011.28;5029463;28;7229;-61
2023/06/02 11:13:50;;;;;;;;;;;;;;;30.04;37.31;94009.97;5009283;28;8116;-61
2023/06/02 11:16:15;;;;;;;;;;;;;;;30.01;37.14;94004.78;5000250;28;7281;-61
2023/06/02 11:18:42;;;;;;;;;;;;;;;30.02;36.42;94009.78;5001971;28;9415;-61
2023/06/02 11:21:22;;;;;;;;;;;;;;;30.06;37.15;94012.22;5007712;28;9380;-62
2023/06/02 11:23:52;;;;;;;;;;;;;;;30.05;36.89;94005.91;5014373;28;7237;-61
2023/06/02 11:26:47;;;;;;;;;;;;;;;30.07;36.96;93999.81;5006371;28;9229;-62
2023/06/02 11:29:16;;;;;;;;;;;;;;;30.08;36.76;94007.56;5032795;28;9028;-62
2023/06/02 11:31:52;;;;;;;;;;;;;;;30.08;36.35;94007.56;5006301;28;8694;-61
2023/06/02 11:34:18;;;;;;;;;;;;;;;30.09;36.74;94006.31;5021376;28;9459;-62
2023/06/02 11:36:51;;;;;;;;;;;;;;;30.09;35.97;94006.31;5016717;28;8690;-62
2023/06/02 11:39:27;;;;;;;;;;;;;;;30.07;36.93;93994.28;5016074;28;7033;-62
2023/06/02 11:42:22;;;;;;;;;;;;;;;30.10;36.80;94004.28;5020865;28;8985;-61
2023/06/02 11:44:54;;;;;;;;;;;;;;;30.09;35.84;94003.53;5003161;28;9440;-61
2023/06/02 11:47:29;;;;;;;;;;;;;;;30.09;35.37;93997.97;5004561;28;9389;-61
2023/06/02 11:50:14;;;;;;;;;;;;;;;30.09;35.82;93994.47;5032934;28;9080;-62
2023/06/02 11:52:48;;;;;;;;;;;;;;;30.10;35.30;93988.34;5012165;28;7224;-62
2023/06/02 11:55:25;;;;;;;;;;;;;;;30.08;35.99;93999.25;5011236;28;9023;-62
2023/06/02 11:58:18;;;;;;;;;;;;;;;30.09;34.81;93989.66;5021281;28;9340;-62
2023/06/02 12:00:47;;;;;;;;;;;;;;;30.12;35.62;93985.78;4999270;28;8760;-62
2023/06/02 12:03:15;;;;;;;;;;;;;;;30.12;35.02;93985.78;5019349;28;9045;-62
2023/06/02 12:06:17;;;;;;;;;;;;;;;30.13;34.17;93987.25;5007306;28;7273;-62
2023/06/02 12:08:55;;;;;;;;;;;;;;;30.15;34.58;93978.38;5011660;28;9335;-61
2023/06/02 12:11:24;;;;;;;;;;;;;;;30.18;34.00;93983.59;5007945;28;7160;-62
2023/06/02 12:14:07;;;;;;;;;;;;;;;30.19;33.92;93973.22;5011202;28;7220;-61
2023/06/02 12:16:34;;;;;;;;;;;;;;;30.21;33.99;93971.38;5000402;28;7283;-61
2023/06/02 12:19:21;;;;;;;;;;;;;;;30.24;34.43;93970.28;5008766;28;7268;-62
2023/06/02 12:21:54;;;;;;;;;;;;;;;30.26;34.28;93969.72;5013982;28;7517;-61
2023/06/02 12:24:38;;;;;;;;;;;;;;;30.26;33.81;93970.47;5016287;28;9314;-62
2023/06/02 12:27:06;;;;;;;;;;;;;;;30.28;33.83;93967.88;5003818;28;8868;-61
2023/06/02 12:29:32;;;;;;;;;;;;;;;30.27;34.67;93965.66;5014329;28;7262;-62
2023/06/02 12:32:01;;;;;;;;;;;;;;;30.29;34.10;93966.59;5004649;28;8933;-62
2023/06/02 12:34:27;;;;;;;;;;;;;;;30.30;33.94;93967.31;5010582;28;9045;-62
2023/06/02 12:36:58;;;;;;;;;;;;;;;30.28;34.19;93967.88;5010364;28;7053;-62
2023/06/02 12:39:24;;;;;;;;;;;;;;;30.24;34.68;93956.41;5006157;28;9265;-62
2023/06/02 12:41:53;;;;;;;;;;;;;;;30.27;33.33;93969.19;5005615;28;7299;-62
2023/06/02 12:44:21;;;;;;;;;;;;;;;30.29;34.12;93966.59;5020680;28;7519;-62
2023/06/02 12:46:48;;;;;;;;;;;;;;;30.29;34.26;93966.59;5005359;28;8750;-61
2023/06/02 12:49:16;;;;;;;;;;;;;;;30.26;34.15;93958.63;5007863;28;9426;-61
2023/06/02 12:51:43;;;;;;;;;;;;;;;30.31;34.50;93958.47;5037333;28;7015;-62
2023/06/02 12:54:10;;;;;;;;;;;;;;;30.29;33.68;93955.50;5020252;28;7311;-62
2023/06/02 12:56:38;;;;;;;;;;;;;;;30.34;34.34;93959.41;5000640;28;7044;-62
2023/06/02 12:59:09;;;;;;;;;;;;;;;30.35;34.74;93958.09;5013406;28;7285;-62
2023/06/02 13:01:37;;;;;;;;;;;;;;;30.36;34.11;93960.31;5000159;28;9695;-62
2023/06/02 13:04:04;;;;;;;;;;;;;;;30.34;34.66;93957.38;5003673;28;6998;-62
2023/06/02 13:06:31;;;;;;;;;;;;;;;30.38;34.08;93957.72;5006939;28;8047;-62
2023/06/02 13:08:59;;;;;;;;;;;;;;;30.42;34.00;93962.94;4999656;28;7026;-62
2023/06/02 13:11:28;;;;;;;;;;;;;;;30.43;34.35;93961.63;5009765;28;8732;-62
2023/06/02 13:14:00;;;;;;;;;;;;;;;30.43;35.09;93956.81;5011744;28;7018;-62
2023/06/02 13:17:05;;;;;;;;;;;;;;;30.46;35.01;93955.72;5008153;28;7223;-61
2023/06/02 13:19:41;;;;;;;;;;;;;;;30.49;34.61;93954.59;4936792;28;7279;-62
2023/06/02 13:22:17;;;;;;;;;;;;;;;30.48;34.61;93952.38;4935538;28;7172;-61
2023/06/02 13:24:52;;;;;;;;;;;;;;;30.50;35.32;93945.00;4938204;28;9223;-61
2023/06/02 13:31:12;;;;;;;;;;;;;;;30.52;35.53;93944.44;4948581;28;9113;-62
2023/06/02 13:33:38;;;;;;;;;;;;;;;30.53;35.80;93940.38;4933574;28;9374;-62
2023/06/02 13:36:36;;;;;;;;;;;;;;;30.54;35.27;93933.50;4936259;28;7261;-62
2023/06/02 13:39:17;;;;;;;;;;;;;;;30.56;35.19;93935.75;4887380;29;7345;-62
2023/06/02 13:41:54;;;;;;;;;;;;;;;30.57;35.53;93935.19;4889422;29;9087;-62
2023/06/02 13:44:31;;;;;;;;;;;;;;;30.58;35.45;93936.66;4869611;29;7271;-62
2023/06/02 13:47:11;;;;;;;;;;;;;;;30.60;35.37;93934.09;4886677;29;9378;-62
2023/06/02 13:50:08;;;;;;;;;;;;;;;30.64;34.18;93934.47;4885348;29;7300;-62